Masuhozan Maru — JD3292 — position and weather

sailwx.info

Track history (hours):
 
Tides and Currents Weather Stations Pressure Air Temp Water Temp Dewpoint Dewpoint Depression Visibility Wind Speed Wind Dir Waves Ship Positions

Masuhozan Maru

Last reported at 2018-Feb-20 22:14 UTC. Time now 2018-Feb-23 08:29 UTC.
Position N 34°59' E 140°08'.

Length 76 m; draft 4.5 m.

Type: Cargo ship. MMSI: 431003159.

Date/timePositionNaut miles runAvg speedWind from/ knotsBaromVisibWave heightAir tempDewpointWater temp
2018-Feb-20 22:14N 34°59' E 140°08'512.1
2018-Feb-20 21:49N 34°56' E 140°03'3311.6
2018-Feb-20 18:59N 34°40' E 139°28'1212.2
2018-Feb-20 17:58N 34°38' E 139°14'613.3
2018-Feb-20 17:29N 34°36' E 139°06'612.6
2018-Feb-20 16:59N 34°35' E 138°58'613.3
2018-Feb-20 16:30N 34°35' E 138°51'611.7
2018-Feb-20 16:00N 34°34' E 138°44'711.6
2018-Feb-20 15:25N 34°34' E 138°35'612.7
2018-Feb-20 14:59N 34°34' E 138°29'712.7
2018-Feb-20 14:27N 34°34' E 138°20'812.9
2018-Feb-20 13:51N 34°34' E 138°11'513.1
2018-Feb-20 13:29N 34°34' E 138°05'4212.7
2018-Feb-20 10:10N 34°33' E 137°14'912.3
2018-Feb-20 09:26N 34°32' E 137°03'1311.3
2018-Feb-20 08:19N 34°40' E 136°51'412.1
2018-Feb-20 08:00N 34°43' E 136°48'612.2
2018-Feb-20 07:30N 34°49' E 136°46'612.8
2018-Feb-20 07:00N 34°55' E 136°46'612.4
2018-Feb-20 06:30N 35°00' E 136°50'3 0.5
2018-Feb-19 23:04N 35°03' E 136°52'0 0.2
2018-Feb-19 23:00N 35°03' E 136°52'2 3.7
2018-Feb-19 22:30N 35°05' E 136°53'0 0.0
2018-Feb-19 22:00N 35°05' E 136°53'0 0.0
2018-Feb-19 21:30N 35°05' E 136°53'1 1.2
2018-Feb-19 21:00N 35°05' E 136°52'0 0.0
2018-Feb-19 20:30N 35°05' E 136°52'0 0.0
2018-Feb-19 20:00N 35°05' E 136°52'0 0.0
2018-Feb-19 19:30N 35°05' E 136°52'0 0.0
2018-Feb-19 19:00N 35°05' E 136°52'0 0.0
2018-Feb-19 18:30N 35°05' E 136°52'0 0.0
2018-Feb-19 18:00N 35°05' E 136°52'0 0.0
2018-Feb-19 17:30N 35°05' E 136°52'0 0.0
2018-Feb-19 17:00N 35°05' E 136°52'0 0.0
2018-Feb-19 16:30N 35°05' E 136°52'0 0.0
2018-Feb-19 16:00N 35°05' E 136°52'0 0.0
2018-Feb-19 15:30N 35°05' E 136°52'0 0.0
2018-Feb-19 15:00N 35°05' E 136°52'0 0.0
2018-Feb-19 14:30N 35°05' E 136°52'0 0.0
2018-Feb-19 14:00N 35°05' E 136°52'0 0.0
2018-Feb-19 13:30N 35°05' E 136°52'0 0.0
2018-Feb-19 13:00N 35°05' E 136°52'0 0.0
2018-Feb-19 12:30N 35°05' E 136°52'0 0.0
2018-Feb-19 12:00N 35°05' E 136°52'0 0.0
2018-Feb-19 11:30N 35°05' E 136°52'0 0.0
2018-Feb-19 11:00N 35°05' E 136°52'0 0.0
2018-Feb-19 10:30N 35°05' E 136°52'0 0.0
2018-Feb-19 10:00N 35°05' E 136°52'0 0.0
2018-Feb-19 09:30N 35°05' E 136°52'0 0.0
2018-Feb-19 09:00N 35°05' E 136°52'0 0.0
2018-Feb-19 08:30N 35°05' E 136°52'0 0.0
2018-Feb-19 08:00N 35°05' E 136°52'0 0.0
2018-Feb-19 07:30N 35°05' E 136°52'1 2.5
2018-Feb-19 07:00N 35°04' E 136°52'3 6.7
2018-Feb-19 06:30N 35°00' E 136°51'0 0.0
2018-Feb-19 06:00N 35°00' E 136°51'0 0.0
2018-Feb-19 05:30N 35°00' E 136°51'0 0.1
2018-Feb-19 05:00N 35°00' E 136°51'0 0.6
2018-Feb-19 04:30N 35°00' E 136°51'0 0.0
2018-Feb-19 04:00N 35°00' E 136°51'0 0.0
2018-Feb-19 03:30N 35°00' E 136°51'0 0.0
2018-Feb-19 03:00N 35°00' E 136°51'0 0.0
2018-Feb-19 02:30N 35°00' E 136°51'0 0.0
2018-Feb-19 02:00N 35°00' E 136°51'0 0.0
2018-Feb-19 01:30N 35°00' E 136°51'0 0.0
2018-Feb-19 01:00N 35°00' E 136°51'0 0.0
2018-Feb-19 00:30N 35°00' E 136°51'0 0.0
2018-Feb-19 00:00N 35°00' E 136°51'0 0.0
2018-Feb-18 23:30N 35°00' E 136°51'0 0.0
2018-Feb-18 23:00N 35°00' E 136°51'1 1.8
2018-Feb-18 22:30N 35°00' E 136°50'2 3.4
2018-Feb-18 22:00N 34°59' E 136°48'0 0.0
2018-Feb-18 21:30N 34°59' E 136°48'0 0.0
2018-Feb-18 21:00N 34°59' E 136°48'0 0.1
2018-Feb-18 20:30N 34°59' E 136°48'0 0.0
2018-Feb-18 20:00N 34°59' E 136°48'0 0.0
2018-Feb-18 19:30N 34°59' E 136°48'0 0.0
2018-Feb-18 19:00N 34°59' E 136°48'0 0.0
2018-Feb-18 18:30N 34°59' E 136°48'0 0.0
2018-Feb-18 18:00N 34°59' E 136°48'0 0.0
2018-Feb-18 17:30N 34°59' E 136°48'0 0.1
2018-Feb-18 17:00N 34°59' E 136°48'0 0.0
2018-Feb-18 16:30N 34°59' E 136°48'0 0.0
2018-Feb-18 15:59N 34°59' E 136°48'0 0.0
2018-Feb-18 15:30N 34°59' E 136°48'0 0.0
2018-Feb-18 15:00N 34°59' E 136°48'0 0.0
2018-Feb-18 14:30N 34°59' E 136°48'0 0.0
2018-Feb-18 14:00N 34°59' E 136°48'0 0.0
2018-Feb-18 13:30N 34°59' E 136°48'0 0.1
2018-Feb-18 12:59N 34°59' E 136°48'0 0.0
2018-Feb-18 12:30N 34°59' E 136°48'0 0.0
2018-Feb-18 12:00N 34°59' E 136°48'0 0.0
2018-Feb-18 11:30N 34°59' E 136°48'0 0.0
2018-Feb-18 11:00N 34°59' E 136°48'0 0.0
2018-Feb-18 10:30N 34°59' E 136°48'0 0.0
2018-Feb-18 10:00N 34°59' E 136°48'0 0.0
2018-Feb-18 09:30N 34°59' E 136°48'0 0.0
2018-Feb-18 09:00N 34°59' E 136°48'0 0.0
2018-Feb-18 08:30N 34°59' E 136°48'0 0.0
2018-Feb-18 08:00N 34°59' E 136°48'0 0.0
2018-Feb-18 07:30N 34°59' E 136°48'0 0.3
2018-Feb-18 07:00N 34°59' E 136°48'611.2
2018-Feb-18 06:30N 34°53' E 136°47'511.1
2018-Feb-18 06:00N 34°48' E 136°48'611.1
2018-Feb-18 05:30N 34°43' E 136°51'97 9.6
2018-Feb-17 19:28N 34°36' E 138°48'5 9.2
2018-Feb-17 18:55N 34°36' E 138°54'1611.3
2018-Feb-17 17:30N 34°46' E 139°09'53 1.9
2018-Feb-16 13:32N 35°01' E 140°11'011.4
2018-Feb-16 13:29N 35°01' E 140°10'811.7
2018-Feb-16 12:49N 34°57' E 140°02'16 8.1
2018-Feb-16 10:52N 35°03' E 139°44'412.5
2018-Feb-16 10:30N 35°08' E 139°45'712.9
2018-Feb-16 10:00N 35°14' E 139°46'612.8
2018-Feb-16 09:30N 35°20' E 139°43'611.9
2018-Feb-16 09:00N 35°25' E 139°44'712.6
2018-Feb-16 08:29N 35°29' E 139°51'612.6
2018-Feb-16 08:00N 35°32' E 139°57'612.5
2018-Feb-16 07:30N 35°35' E 140°04'1 2.6
2018-Feb-16 07:00N 35°36' E 140°05'0 0.0
2018-Feb-16 06:30N 35°36' E 140°05'0 0.0
2018-Feb-16 06:00N 35°36' E 140°05'0 0.0
2018-Feb-16 05:30N 35°36' E 140°05'0 0.0
2018-Feb-16 05:00N 35°36' E 140°05'0 0.0
2018-Feb-16 04:30N 35°36' E 140°05'0 0.0
2018-Feb-16 04:00N 35°36' E 140°05'0 0.0
2018-Feb-16 03:30N 35°36' E 140°05'0 0.0
2018-Feb-16 03:00N 35°36' E 140°05'0 0.0
2018-Feb-16 02:30N 35°36' E 140°05'0 0.0
2018-Feb-16 02:00N 35°36' E 140°05'0 0.0
2018-Feb-16 01:30N 35°36' E 140°05'0 0.0
2018-Feb-16 01:00N 35°36' E 140°05'0 0.0
2018-Feb-16 00:30N 35°36' E 140°05'0 0.0
2018-Feb-16 00:00N 35°36' E 140°05'0 0.0
2018-Feb-15 23:29N 35°36' E 140°05'1 1.2
2018-Feb-15 23:00N 35°36' E 140°05'2 4.4
2018-Feb-15 22:29N 35°35' E 140°03'0 0.0
2018-Feb-15 21:59N 35°34' E 140°03'0 0.0
2018-Feb-15 21:29N 35°34' E 140°03'0 0.1
2018-Feb-15 20:59N 35°34' E 140°03'0 0.0
2018-Feb-15 20:29N 35°34' E 140°03'0 0.0
2018-Feb-15 19:59N 35°34' E 140°03'0 0.0
2018-Feb-15 19:29N 35°35' E 140°03'0 0.1
2018-Feb-15 18:59N 35°35' E 140°03'0 0.0
2018-Feb-15 18:29N 35°35' E 140°03'0 0.0
2018-Feb-15 17:59N 35°35' E 140°03'0 0.0
2018-Feb-15 17:29N 35°35' E 140°03'0 0.0
2018-Feb-15 16:59N 35°35' E 140°03'0 0.0
2018-Feb-15 16:29N 35°35' E 140°03'0 0.0
2018-Feb-15 15:59N 35°35' E 140°03'0 1.0
2018-Feb-15 15:30N 35°34' E 140°03'712.0
2018-Feb-15 14:56N 35°31' E 139°55'512.3
2018-Feb-15 14:30N 35°28' E 139°50'612.1
2018-Feb-15 14:00N 35°23' E 139°46'510.9
2018-Feb-15 13:30N 35°17' E 139°45'510.7
2018-Feb-15 13:00N 35°12' E 139°47'611.6
2018-Feb-15 12:30N 35°07' E 139°46'  
Track history (hours):
 
Tides and Currents Weather Stations Pressure Air Temp Water Temp Dewpoint Dewpoint Depression Visibility Wind Speed Wind Dir Waves Ship Positions

Masuhozan Maru

Last reported at 2018-Feb-20 22:14 UTC. Time now 2018-Feb-23 08:29 UTC.
Position N 34°59' E 140°08'.

Length 76 m; draft 4.5 m.

Type: Cargo ship. MMSI: 431003159.

Date/timePositionNaut miles runAvg speedWind from/ knotsBaromVisibWave heightAir tempDewpointWater temp
2018-Feb-20 22:14N 34°59' E 140°08'512.1
2018-Feb-20 21:49N 34°56' E 140°03'3311.6
2018-Feb-20 18:59N 34°40' E 139°28'1212.2
2018-Feb-20 17:58N 34°38' E 139°14'613.3
2018-Feb-20 17:29N 34°36' E 139°06'612.6
2018-Feb-20 16:59N 34°35' E 138°58'613.3
2018-Feb-20 16:30N 34°35' E 138°51'611.7
2018-Feb-20 16:00N 34°34' E 138°44'711.6
2018-Feb-20 15:25N 34°34' E 138°35'612.7
2018-Feb-20 14:59N 34°34' E 138°29'712.7
2018-Feb-20 14:27N 34°34' E 138°20'812.9
2018-Feb-20 13:51N 34°34' E 138°11'513.1
2018-Feb-20 13:29N 34°34' E 138°05'4212.7
2018-Feb-20 10:10N 34°33' E 137°14'912.3
2018-Feb-20 09:26N 34°32' E 137°03'1311.3
2018-Feb-20 08:19N 34°40' E 136°51'412.1
2018-Feb-20 08:00N 34°43' E 136°48'612.2
2018-Feb-20 07:30N 34°49' E 136°46'612.8
2018-Feb-20 07:00N 34°55' E 136°46'612.4
2018-Feb-20 06:30N 35°00' E 136°50'3 0.5
2018-Feb-19 23:04N 35°03' E 136°52'0 0.2
2018-Feb-19 23:00N 35°03' E 136°52'2 3.7
2018-Feb-19 22:30N 35°05' E 136°53'0 0.0
2018-Feb-19 22:00N 35°05' E 136°53'0 0.0
2018-Feb-19 21:30N 35°05' E 136°53'1 1.2
2018-Feb-19 21:00N 35°05' E 136°52'0 0.0
2018-Feb-19 20:30N 35°05' E 136°52'0 0.0
2018-Feb-19 20:00N 35°05' E 136°52'0 0.0
2018-Feb-19 19:30N 35°05' E 136°52'0 0.0
2018-Feb-19 19:00N 35°05' E 136°52'0 0.0
2018-Feb-19 18:30N 35°05' E 136°52'0 0.0
2018-Feb-19 18:00N 35°05' E 136°52'0 0.0
2018-Feb-19 17:30N 35°05' E 136°52'0 0.0
2018-Feb-19 17:00N 35°05' E 136°52'0 0.0
2018-Feb-19 16:30N 35°05' E 136°52'0 0.0
2018-Feb-19 16:00N 35°05' E 136°52'0 0.0
2018-Feb-19 15:30N 35°05' E 136°52'0 0.0
2018-Feb-19 15:00N 35°05' E 136°52'0 0.0
2018-Feb-19 14:30N 35°05' E 136°52'0 0.0
2018-Feb-19 14:00N 35°05' E 136°52'0 0.0
2018-Feb-19 13:30N 35°05' E 136°52'0 0.0
2018-Feb-19 13:00N 35°05' E 136°52'0 0.0
2018-Feb-19 12:30N 35°05' E 136°52'0 0.0
2018-Feb-19 12:00N 35°05' E 136°52'0 0.0
2018-Feb-19 11:30N 35°05' E 136°52'0 0.0
2018-Feb-19 11:00N 35°05' E 136°52'0 0.0
2018-Feb-19 10:30N 35°05' E 136°52'0 0.0
2018-Feb-19 10:00N 35°05' E 136°52'0 0.0
2018-Feb-19 09:30N 35°05' E 136°52'0 0.0
2018-Feb-19 09:00N 35°05' E 136°52'0 0.0
2018-Feb-19 08:30N 35°05' E 136°52'0 0.0
2018-Feb-19 08:00N 35°05' E 136°52'0 0.0
2018-Feb-19 07:30N 35°05' E 136°52'1 2.5
2018-Feb-19 07:00N 35°04' E 136°52'3 6.7
2018-Feb-19 06:30N 35°00' E 136°51'0 0.0
2018-Feb-19 06:00N 35°00' E 136°51'0 0.0
2018-Feb-19 05:30N 35°00' E 136°51'0 0.1
2018-Feb-19 05:00N 35°00' E 136°51'0 0.6
2018-Feb-19 04:30N 35°00' E 136°51'0 0.0
2018-Feb-19 04:00N 35°00' E 136°51'0 0.0
2018-Feb-19 03:30N 35°00' E 136°51'0 0.0
2018-Feb-19 03:00N 35°00' E 136°51'0 0.0
2018-Feb-19 02:30N 35°00' E 136°51'0 0.0
2018-Feb-19 02:00N 35°00' E 136°51'0 0.0
2018-Feb-19 01:30N 35°00' E 136°51'0 0.0
2018-Feb-19 01:00N 35°00' E 136°51'0 0.0
2018-Feb-19 00:30N 35°00' E 136°51'0 0.0
2018-Feb-19 00:00N 35°00' E 136°51'0 0.0
2018-Feb-18 23:30N 35°00' E 136°51'0 0.0
2018-Feb-18 23:00N 35°00' E 136°51'1 1.8
2018-Feb-18 22:30N 35°00' E 136°50'2 3.4
2018-Feb-18 22:00N 34°59' E 136°48'0 0.0
2018-Feb-18 21:30N 34°59' E 136°48'0 0.0
2018-Feb-18 21:00N 34°59' E 136°48'0 0.1
2018-Feb-18 20:30N 34°59' E 136°48'0 0.0
2018-Feb-18 20:00N 34°59' E 136°48'0 0.0
2018-Feb-18 19:30N 34°59' E 136°48'0 0.0
2018-Feb-18 19:00N 34°59' E 136°48'0 0.0
2018-Feb-18 18:30N 34°59' E 136°48'0 0.0
2018-Feb-18 18:00N 34°59' E 136°48'0 0.0
2018-Feb-18 17:30N 34°59' E 136°48'0 0.1
2018-Feb-18 17:00N 34°59' E 136°48'0 0.0
2018-Feb-18 16:30N 34°59' E 136°48'0 0.0
2018-Feb-18 15:59N 34°59' E 136°48'0 0.0
2018-Feb-18 15:30N 34°59' E 136°48'0 0.0
2018-Feb-18 15:00N 34°59' E 136°48'0 0.0
2018-Feb-18 14:30N 34°59' E 136°48'0 0.0
2018-Feb-18 14:00N 34°59' E 136°48'0 0.0
2018-Feb-18 13:30N 34°59' E 136°48'0 0.1
2018-Feb-18 12:59N 34°59' E 136°48'0 0.0
2018-Feb-18 12:30N 34°59' E 136°48'0 0.0
2018-Feb-18 12:00N 34°59' E 136°48'0 0.0
2018-Feb-18 11:30N 34°59' E 136°48'0 0.0
2018-Feb-18 11:00N 34°59' E 136°48'0 0.0
2018-Feb-18 10:30N 34°59' E 136°48'0 0.0
2018-Feb-18 10:00N 34°59' E 136°48'0 0.0
2018-Feb-18 09:30N 34°59' E 136°48'0 0.0
2018-Feb-18 09:00N 34°59' E 136°48'0 0.0
2018-Feb-18 08:30N 34°59' E 136°48'0 0.0
2018-Feb-18 08:00N 34°59' E 136°48'0 0.0
2018-Feb-18 07:30N 34°59' E 136°48'0 0.3
2018-Feb-18 07:00N 34°59' E 136°48'611.2
2018-Feb-18 06:30N 34°53' E 136°47'511.1
2018-Feb-18 06:00N 34°48' E 136°48'611.1
2018-Feb-18 05:30N 34°43' E 136°51'97 9.6
2018-Feb-17 19:28N 34°36' E 138°48'5 9.2
2018-Feb-17 18:55N 34°36' E 138°54'1611.3
2018-Feb-17 17:30N 34°46' E 139°09'53 1.9
2018-Feb-16 13:32N 35°01' E 140°11'011.4
2018-Feb-16 13:29N 35°01' E 140°10'811.7
2018-Feb-16 12:49N 34°57' E 140°02'16 8.1
2018-Feb-16 10:52N 35°03' E 139°44'412.5
2018-Feb-16 10:30N 35°08' E 139°45'712.9
2018-Feb-16 10:00N 35°14' E 139°46'612.8
2018-Feb-16 09:30N 35°20' E 139°43'611.9
2018-Feb-16 09:00N 35°25' E 139°44'712.6
2018-Feb-16 08:29N 35°29' E 139°51'612.6
2018-Feb-16 08:00N 35°32' E 139°57'612.5
2018-Feb-16 07:30N 35°35' E 140°04'1 2.6
2018-Feb-16 07:00N 35°36' E 140°05'0 0.0
2018-Feb-16 06:30N 35°36' E 140°05'0 0.0
2018-Feb-16 06:00N 35°36' E 140°05'0 0.0
2018-Feb-16 05:30N 35°36' E 140°05'0 0.0
2018-Feb-16 05:00N 35°36' E 140°05'0 0.0
2018-Feb-16 04:30N 35°36' E 140°05'0 0.0
2018-Feb-16 04:00N 35°36' E 140°05'0 0.0
2018-Feb-16 03:30N 35°36' E 140°05'0 0.0
2018-Feb-16 03:00N 35°36' E 140°05'0 0.0
2018-Feb-16 02:30N 35°36' E 140°05'0 0.0
2018-Feb-16 02:00N 35°36' E 140°05'0 0.0
2018-Feb-16 01:30N 35°36' E 140°05'0 0.0
2018-Feb-16 01:00N 35°36' E 140°05'0 0.0
2018-Feb-16 00:30N 35°36' E 140°05'0 0.0
2018-Feb-16 00:00N 35°36' E 140°05'0 0.0
2018-Feb-15 23:29N 35°36' E 140°05'1 1.2
2018-Feb-15 23:00N 35°36' E 140°05'2 4.4
2018-Feb-15 22:29N 35°35' E 140°03'0 0.0
2018-Feb-15 21:59N 35°34' E 140°03'0 0.0
2018-Feb-15 21:29N 35°34' E 140°03'0 0.1
2018-Feb-15 20:59N 35°34' E 140°03'0 0.0
2018-Feb-15 20:29N 35°34' E 140°03'0 0.0
2018-Feb-15 19:59N 35°34' E 140°03'0 0.0
2018-Feb-15 19:29N 35°35' E 140°03'0 0.1
2018-Feb-15 18:59N 35°35' E 140°03'0 0.0
2018-Feb-15 18:29N 35°35' E 140°03'0 0.0
2018-Feb-15 17:59N 35°35' E 140°03'0 0.0
2018-Feb-15 17:29N 35°35' E 140°03'0 0.0
2018-Feb-15 16:59N 35°35' E 140°03'0 0.0
2018-Feb-15 16:29N 35°35' E 140°03'0 0.0
2018-Feb-15 15:59N 35°35' E 140°03'0 1.0
2018-Feb-15 15:30N 35°34' E 140°03'712.0
2018-Feb-15 14:56N 35°31' E 139°55'512.3
2018-Feb-15 14:30N 35°28' E 139°50'612.1
2018-Feb-15 14:00N 35°23' E 139°46'510.9
2018-Feb-15 13:30N 35°17' E 139°45'510.7
2018-Feb-15 13:00N 35°12' E 139°47'611.6
2018-Feb-15 12:30N 35°07' E 139°46'  

Dump ship's entire track history